createdAt,value
2017-09-28T00:00:24.813Z,19
2017-09-28T00:01:27.524Z,19
2017-09-28T00:02:29.906Z,19
2017-09-28T00:03:32.285Z,19
2017-09-28T00:04:34.673Z,19
2017-09-28T00:05:37.047Z,19
2017-09-28T00:06:39.433Z,19
2017-09-28T00:07:41.800Z,19
2017-09-28T00:08:44.193Z,19
2017-09-28T00:09:46.563Z,19
2017-09-28T00:10:48.944Z,19
2017-09-28T00:11:51.330Z,19
2017-09-28T00:12:53.714Z,19
2017-09-28T00:13:56.095Z,19
2017-09-28T00:14:58.482Z,19
2017-09-28T00:16:00.865Z,19
2017-09-28T00:17:03.597Z,18.9
2017-09-28T00:18:05.976Z,19
2017-09-28T00:19:08.352Z,19
2017-09-28T00:20:11.082Z,19
2017-09-28T00:21:13.476Z,19
2017-09-28T00:22:16.189Z,19
2017-09-28T00:23:18.573Z,19
2017-09-28T00:24:20.949Z,19
2017-09-28T00:25:23.327Z,19
2017-09-28T00:26:25.721Z,19
2017-09-28T00:27:28.095Z,19
2017-09-28T00:28:30.472Z,19
2017-09-28T00:29:32.862Z,19
2017-09-28T00:30:35.290Z,18.9
2017-09-28T00:31:37.664Z,19
2017-09-28T00:32:40.046Z,19
2017-09-28T00:33:42.426Z,19
2017-09-28T00:34:44.819Z,19
2017-09-28T00:35:47.203Z,19
2017-09-28T00:36:49.578Z,19
2017-09-28T00:37:51.954Z,19
2017-09-28T00:38:54.340Z,19
2017-09-28T00:39:57.070Z,19
2017-09-28T00:40:59.476Z,19
2017-09-28T00:42:01.859Z,19
2017-09-28T00:43:04.253Z,19
2017-09-28T00:44:06.659Z,19
2017-09-28T00:45:09.051Z,19
2017-09-28T00:46:11.468Z,19
2017-09-28T00:47:13.866Z,19
2017-09-28T00:48:16.250Z,19
2017-09-28T00:49:18.654Z,19
2017-09-28T00:50:21.038Z,19
2017-09-28T00:51:23.452Z,19
2017-09-28T00:52:25.864Z,19
2017-09-28T00:53:28.243Z,19
2017-09-28T00:54:30.645Z,19
2017-09-28T00:55:33.382Z,19
2017-09-28T00:56:35.769Z,19
2017-09-28T00:57:38.156Z,19
2017-09-28T00:58:40.688Z,19
2017-09-28T00:59:43.066Z,19
2017-09-28T01:00:45.477Z,18.9
2017-09-28T01:01:47.855Z,19
2017-09-28T01:02:50.243Z,19
2017-09-28T01:03:52.622Z,19
2017-09-28T01:04:55.020Z,19
2017-09-28T01:05:57.769Z,18.9
2017-09-28T01:07:00.140Z,18.9
2017-09-28T01:08:02.524Z,18.9
2017-09-28T01:09:04.911Z,18.9
2017-09-28T01:10:07.644Z,18.9
2017-09-28T01:11:10.042Z,18.9
2017-09-28T01:12:12.417Z,18.9
2017-09-28T01:13:14.802Z,18.9
2017-09-28T01:14:17.195Z,18.9
2017-09-28T01:15:19.573Z,18.9
2017-09-28T01:16:21.948Z,18.9
2017-09-28T01:17:24.336Z,18.9
2017-09-28T01:18:26.704Z,18.9
2017-09-28T01:19:29.093Z,18.9
2017-09-28T01:20:31.474Z,18.9
2017-09-28T01:21:33.856Z,18.9
2017-09-28T01:22:36.243Z,18.9
2017-09-28T01:23:38.623Z,18.9
2017-09-28T01:24:41.003Z,18.9
2017-09-28T01:25:43.738Z,18.9
2017-09-28T01:26:46.118Z,18.9
2017-09-28T01:27:48.505Z,18.9
2017-09-28T01:28:50.872Z,18.9
2017-09-28T01:29:53.252Z,18.9
2017-09-28T01:30:55.640Z,18.9
2017-09-28T01:31:58.027Z,18.9
2017-09-28T01:33:00.396Z,18.9
2017-09-28T01:34:02.786Z,18.9
2017-09-28T01:35:05.171Z,18.9
2017-09-28T01:36:07.550Z,18.9
2017-09-28T01:37:09.945Z,18.9
2017-09-28T01:38:12.677Z,18.9
2017-09-28T01:39:15.398Z,18.9
2017-09-28T01:40:17.788Z,18.9
2017-09-28T01:41:20.166Z,18.9
2017-09-28T01:42:22.541Z,18.9
2017-09-28T01:43:24.925Z,18.9
2017-09-28T01:44:27.300Z,18.9
2017-09-28T01:45:29.674Z,18.9
2017-09-28T01:46:32.053Z,18.9
2017-09-28T01:47:34.430Z,18.9
2017-09-28T01:48:37.155Z,18.8
2017-09-28T01:49:39.536Z,18.8
2017-09-28T01:50:41.919Z,18.9
2017-09-28T01:51:44.293Z,18.8
2017-09-28T01:52:46.681Z,18.8
2017-09-28T01:53:49.063Z,18.8
2017-09-28T01:54:51.443Z,18.8
2017-09-28T01:55:53.816Z,18.8
2017-09-28T01:56:56.198Z,18.8
2017-09-28T01:57:58.574Z,18.8
2017-09-28T01:59:00.955Z,18.8
2017-09-28T02:00:03.332Z,18.7
2017-09-28T02:01:05.708Z,18.7
2017-09-28T02:02:08.093Z,18.7
2017-09-28T02:03:10.467Z,18.7
2017-09-28T02:04:12.840Z,18.7
2017-09-28T02:05:15.222Z,18.7
2017-09-28T02:06:17.945Z,18.7
2017-09-28T02:07:20.327Z,18.7
2017-09-28T02:08:22.706Z,18.7
2017-09-28T02:09:25.086Z,18.7
2017-09-28T02:10:27.814Z,18.7
2017-09-28T02:11:30.204Z,18.7
2017-09-28T02:12:32.577Z,18.7
2017-09-28T02:13:35.298Z,18.7
2017-09-28T02:14:37.682Z,18.7
2017-09-28T02:15:40.046Z,18.7
2017-09-28T02:16:42.424Z,18.7
2017-09-28T02:17:45.153Z,18.7
2017-09-28T02:18:47.540Z,18.7
2017-09-28T02:19:49.922Z,18.7
2017-09-28T02:20:52.310Z,18.7
2017-09-28T02:21:54.693Z,18.7
2017-09-28T02:22:57.081Z,18.7
2017-09-28T02:23:59.460Z,18.7
2017-09-28T02:25:01.831Z,18.7
2017-09-28T02:26:04.214Z,18.7
2017-09-28T02:27:06.596Z,18.7
2017-09-28T02:28:08.972Z,18.7
2017-09-28T02:29:11.351Z,18.7
2017-09-28T02:30:13.732Z,18.7
2017-09-28T02:31:16.130Z,18.7
2017-09-28T02:32:18.499Z,18.7
2017-09-28T02:33:21.221Z,18.7
2017-09-28T02:34:23.608Z,18.7
2017-09-28T02:35:25.981Z,18.8
2017-09-28T02:36:28.364Z,18.8
2017-09-28T02:37:30.740Z,18.8
2017-09-28T02:38:33.115Z,18.8
2017-09-28T02:39:35.502Z,18.8
2017-09-28T02:40:37.883Z,18.8
2017-09-28T02:41:40.263Z,18.8
2017-09-28T02:42:42.643Z,18.8
2017-09-28T02:43:45.370Z,18.8
2017-09-28T02:44:47.752Z,18.8
2017-09-28T02:45:50.125Z,18.8
2017-09-28T02:46:52.497Z,18.8
2017-09-28T02:47:54.878Z,18.8
2017-09-28T02:48:57.274Z,18.8
2017-09-28T02:49:59.655Z,18.8
2017-09-28T02:51:02.031Z,18.8
2017-09-28T02:52:04.407Z,18.8
2017-09-28T02:53:06.789Z,18.8
2017-09-28T02:54:09.173Z,18.8
2017-09-28T02:55:11.551Z,18.8
2017-09-28T02:56:14.257Z,18.8
2017-09-28T02:57:16.634Z,18.8
2017-09-28T02:58:19.361Z,18.8
2017-09-28T02:59:21.739Z,18.8
2017-09-28T03:00:24.111Z,18.8
2017-09-28T03:01:26.492Z,18.8
2017-09-28T03:02:28.878Z,18.7
2017-09-28T03:03:31.247Z,18.7
2017-09-28T03:04:33.627Z,18.8
2017-09-28T03:05:36.010Z,18.7
2017-09-28T03:06:38.394Z,18.7
2017-09-28T03:07:40.773Z,18.7
2017-09-28T03:08:43.157Z,18.7
2017-09-28T03:09:45.532Z,18.7
2017-09-28T03:10:48.263Z,18.7
2017-09-28T03:11:50.641Z,18.7
2017-09-28T03:12:53.012Z,18.7
2017-09-28T03:13:55.402Z,18.7
2017-09-28T03:14:58.113Z,18.7
2017-09-28T03:16:00.496Z,18.7
2017-09-28T03:17:02.878Z,18.7
2017-09-28T03:18:05.261Z,18.7
2017-09-28T03:19:07.979Z,18.7
2017-09-28T03:20:10.369Z,18.7
2017-09-28T03:21:12.738Z,18.7
2017-09-28T03:22:15.123Z,18.7
2017-09-28T03:23:17.496Z,18.7
2017-09-28T03:24:19.879Z,18.7
2017-09-28T03:25:22.274Z,18.7
2017-09-28T03:26:24.655Z,18.7
2017-09-28T03:27:27.067Z,18.7
2017-09-28T03:28:29.456Z,18.7
2017-09-28T03:29:31.854Z,18.7
2017-09-28T03:30:34.259Z,18.6
2017-09-28T03:31:36.651Z,18.6
2017-09-28T03:32:39.714Z,18.6
2017-09-28T03:33:42.097Z,18.6
2017-09-28T03:34:44.478Z,18.6
2017-09-28T03:35:46.860Z,18.6
2017-09-28T03:36:49.250Z,18.6
2017-09-28T03:37:51.661Z,18.7
2017-09-28T03:38:54.065Z,18.7
2017-09-28T03:39:56.449Z,18.7
2017-09-28T03:40:59.171Z,18.7
2017-09-28T03:42:01.545Z,18.7
2017-09-28T03:43:03.934Z,18.7
2017-09-28T03:44:06.308Z,18.7
2017-09-28T03:45:08.685Z,18.7
2017-09-28T03:46:11.103Z,18.7
2017-09-28T03:47:13.478Z,18.7
2017-09-28T03:48:15.866Z,18.7
2017-09-28T03:49:18.269Z,18.7
2017-09-28T03:50:20.635Z,18.7
2017-09-28T03:51:23.053Z,18.7
2017-09-28T03:52:25.432Z,18.7
2017-09-28T03:53:27.829Z,18.7
2017-09-28T03:54:30.237Z,18.7
2017-09-28T03:55:32.657Z,18.6
2017-09-28T03:56:35.034Z,18.6
2017-09-28T03:57:37.768Z,18.6
2017-09-28T03:58:40.142Z,18.6
2017-09-28T03:59:42.522Z,18.6
2017-09-28T04:00:44.949Z,18.6
2017-09-28T04:01:47.358Z,18.6
2017-09-28T04:02:49.790Z,18.6
2017-09-28T04:03:52.161Z,18.6
2017-09-28T04:04:54.573Z,18.6
2017-09-28T04:05:56.923Z,18.5
2017-09-28T04:06:59.302Z,18.5
2017-09-28T04:08:01.684Z,18.5
2017-09-28T04:09:04.061Z,18.5
2017-09-28T04:10:06.426Z,18.5
2017-09-28T04:11:08.806Z,18.5
2017-09-28T04:12:11.180Z,18.5
2017-09-28T04:13:13.563Z,18.5
2017-09-28T04:14:15.946Z,18.5
2017-09-28T04:15:18.325Z,18.5
2017-09-28T04:16:20.705Z,18.5
2017-09-28T04:17:23.434Z,18.5
2017-09-28T04:18:25.808Z,18.5
2017-09-28T04:19:28.188Z,18.5
2017-09-28T04:20:30.566Z,18.5
2017-09-28T04:21:32.943Z,18.5
2017-09-28T04:22:36.003Z,18.5
2017-09-28T04:23:38.378Z,18.5
2017-09-28T04:24:40.752Z,18.5
2017-09-28T04:25:43.136Z,18.5
2017-09-28T04:26:45.519Z,18.5
2017-09-28T04:27:47.899Z,18.5
2017-09-28T04:28:50.279Z,18.5
2017-09-28T04:29:52.990Z,18.4
2017-09-28T04:30:55.374Z,18.4
2017-09-28T04:31:57.761Z,18.5
2017-09-28T04:33:00.139Z,18.5
2017-09-28T04:34:02.524Z,18.5
2017-09-28T04:35:05.242Z,18.5
2017-09-28T04:36:07.623Z,18.4
2017-09-28T04:37:10.028Z,18.4
2017-09-28T04:38:12.736Z,18.4
2017-09-28T04:39:15.120Z,18.5
2017-09-28T04:40:17.503Z,18.5
2017-09-28T04:41:20.223Z,18.5
2017-09-28T04:42:22.604Z,18.5
2017-09-28T04:43:24.981Z,18.5
2017-09-28T04:44:27.360Z,18.5
2017-09-28T04:45:29.737Z,18.5
2017-09-28T04:46:32.118Z,18.5
2017-09-28T04:47:34.499Z,18.5
2017-09-28T04:48:36.882Z,18.5
2017-09-28T04:49:39.257Z,18.5
2017-09-28T04:50:41.644Z,18.5
2017-09-28T04:51:44.026Z,18.5
2017-09-28T04:52:46.401Z,18.5
2017-09-28T04:53:48.782Z,18.4
2017-09-28T04:54:51.159Z,18.4
2017-09-28T04:55:53.540Z,18.5
2017-09-28T04:56:55.924Z,18.4
2017-09-28T04:57:58.309Z,18.4
2017-09-28T04:59:00.688Z,18.5
2017-09-28T05:00:03.070Z,18.4
2017-09-28T05:01:05.447Z,18.4
2017-09-28T05:02:07.842Z,18.4
2017-09-28T05:03:10.572Z,18.4
2017-09-28T05:04:12.947Z,18.4
2017-09-28T05:05:15.317Z,18.4
2017-09-28T05:06:17.697Z,18.4
2017-09-28T05:07:20.073Z,18.4
2017-09-28T05:08:22.459Z,18.4
2017-09-28T05:09:24.828Z,18.3
2017-09-28T05:10:27.208Z,18.3
2017-09-28T05:11:29.598Z,18.3
2017-09-28T05:12:31.977Z,18.3
2017-09-28T05:13:34.355Z,18.3
2017-09-28T05:14:36.734Z,18.3
2017-09-28T05:15:39.105Z,18.3
2017-09-28T05:16:41.495Z,18.3
2017-09-28T05:17:43.876Z,18.4
2017-09-28T05:18:46.252Z,18.4
2017-09-28T05:19:48.630Z,18.4
2017-09-28T05:20:51.020Z,18.4
2017-09-28T05:21:53.399Z,18.4
2017-09-28T05:22:55.781Z,18.4
2017-09-28T05:23:58.145Z,18.4
2017-09-28T05:25:00.523Z,18.4
2017-09-28T05:26:02.919Z,18.5
2017-09-28T05:27:05.293Z,18.4
2017-09-28T05:28:07.686Z,18.5
2017-09-28T05:29:10.401Z,18.5
2017-09-28T05:30:12.784Z,18.5
2017-09-28T05:31:15.162Z,18.5
2017-09-28T05:32:17.541Z,18.5
2017-09-28T05:33:19.921Z,18.5
2017-09-28T05:34:22.306Z,18.5
2017-09-28T05:35:24.672Z,18.5
2017-09-28T05:36:27.059Z,18.5
2017-09-28T05:37:29.442Z,18.5
2017-09-28T05:38:31.828Z,18.5
2017-09-28T05:39:34.208Z,18.5
2017-09-28T05:40:36.593Z,18.5
2017-09-28T05:41:38.967Z,18.5
2017-09-28T05:42:41.697Z,18.5
2017-09-28T05:43:44.077Z,18.5
2017-09-28T05:44:46.454Z,18.4
2017-09-28T05:45:48.838Z,18.4
2017-09-28T05:46:51.208Z,18.4
2017-09-28T05:47:53.585Z,18.4
2017-09-28T05:48:55.970Z,18.4
2017-09-28T05:49:58.339Z,18.4
2017-09-28T05:51:00.714Z,18.4
2017-09-28T05:52:03.098Z,18.4
2017-09-28T05:53:05.809Z,18.4
2017-09-28T05:54:08.184Z,18.4
2017-09-28T05:55:10.574Z,18.4
2017-09-28T05:56:12.952Z,18.4
2017-09-28T05:57:15.326Z,18.4
2017-09-28T05:58:17.703Z,18.4
2017-09-28T05:59:20.094Z,18.4
2017-09-28T06:00:22.827Z,18.3
2017-09-28T06:01:25.544Z,18.4
2017-09-28T06:02:27.920Z,18.4
2017-09-28T06:03:30.298Z,18.4
2017-09-28T06:04:32.680Z,18.4
2017-09-28T06:05:35.062Z,18.4
2017-09-28T06:06:37.430Z,18.5
2017-09-28T06:07:39.815Z,18.5
2017-09-28T06:08:42.200Z,18.5
2017-09-28T06:09:44.588Z,18.5
2017-09-28T06:10:46.968Z,18.5
2017-09-28T06:11:49.346Z,18.5
2017-09-28T06:12:51.727Z,18.5
2017-09-28T06:13:54.124Z,18.5
2017-09-28T06:14:56.499Z,18.6
2017-09-28T06:15:58.880Z,18.6
2017-09-28T06:17:01.263Z,18.6
2017-09-28T06:18:03.641Z,18.7
2017-09-28T06:19:06.023Z,18.7
2017-09-28T06:20:08.407Z,18.7
2017-09-28T06:21:10.775Z,18.7
2017-09-28T06:22:13.166Z,18.8
2017-09-28T06:23:15.550Z,18.8
2017-09-28T06:24:17.934Z,18.8
2017-09-28T06:25:20.309Z,18.8
2017-09-28T06:26:22.684Z,18.9
2017-09-28T06:27:25.070Z,18.9
2017-09-28T06:28:27.440Z,19
2017-09-28T06:29:29.820Z,19
2017-09-28T06:30:32.212Z,19
2017-09-28T06:31:34.589Z,19
2017-09-28T06:32:36.957Z,19
2017-09-28T06:33:39.347Z,19.1
2017-09-28T06:34:41.714Z,19.1
2017-09-28T06:35:44.100Z,19
2017-09-28T06:36:46.481Z,19.1
2017-09-28T06:37:48.861Z,19.1
2017-09-28T06:38:51.240Z,19.1
2017-09-28T06:39:53.631Z,19.2
2017-09-28T06:40:56.000Z,19.2
2017-09-28T06:41:58.389Z,19.2
2017-09-28T06:43:00.773Z,19.2
2017-09-28T06:44:03.158Z,19.2
2017-09-28T06:45:05.548Z,19.2
2017-09-28T06:46:07.926Z,19.2
2017-09-28T06:47:10.291Z,19.3
2017-09-28T06:48:12.683Z,19.3
2017-09-28T06:49:15.053Z,19.3
2017-09-28T06:50:17.435Z,19.3
2017-09-28T06:51:19.813Z,19.3
2017-09-28T06:52:22.868Z,19.3
2017-09-28T06:53:25.253Z,19.4
2017-09-28T06:54:27.641Z,19.3
2017-09-28T06:55:30.017Z,19.4
2017-09-28T06:56:32.398Z,19.4
2017-09-28T06:57:34.774Z,19.4
2017-09-28T06:58:37.155Z,19.4
2017-09-28T06:59:39.536Z,19.4
2017-09-28T07:00:41.912Z,19.4
2017-09-28T07:01:44.301Z,19.3
2017-09-28T07:02:46.716Z,19.3
2017-09-28T07:03:49.492Z,19.3
2017-09-28T07:04:51.933Z,19.3
2017-09-28T07:05:54.369Z,19.3
2017-09-28T07:06:56.810Z,19.3
2017-09-28T07:07:59.603Z,19.3
2017-09-28T07:09:02.392Z,19.3
2017-09-28T07:10:04.826Z,19.3
2017-09-28T07:11:07.261Z,19.4
2017-09-28T07:12:09.694Z,19.4
2017-09-28T07:13:12.513Z,19.4
2017-09-28T07:14:14.948Z,19.5
2017-09-28T07:15:17.371Z,19.5
2017-09-28T07:16:19.814Z,19.5
2017-09-28T07:17:22.260Z,19.6
2017-09-28T07:18:24.703Z,19.6
2017-09-28T07:19:27.137Z,19.6
2017-09-28T07:20:29.570Z,19.6
2017-09-28T07:21:32.011Z,19.7
2017-09-28T07:22:34.464Z,19.7
2017-09-28T07:23:36.902Z,19.7
2017-09-28T07:24:39.327Z,19.7
2017-09-28T07:25:41.762Z,19.8
2017-09-28T07:26:44.548Z,19.8
2017-09-28T07:27:46.986Z,19.8
2017-09-28T07:28:49.417Z,19.9
2017-09-28T07:29:51.868Z,19.9
2017-09-28T07:30:54.320Z,19.9
2017-09-28T07:31:56.750Z,19.9
2017-09-28T07:32:59.189Z,20
2017-09-28T07:34:01.963Z,20
2017-09-28T07:35:04.395Z,20
2017-09-28T07:36:06.834Z,20
2017-09-28T07:37:09.281Z,20
2017-09-28T07:38:11.738Z,20.1
2017-09-28T07:39:14.186Z,20.1
2017-09-28T07:40:16.949Z,20.1
2017-09-28T07:41:19.382Z,20.2
2017-09-28T07:42:21.820Z,20.2
2017-09-28T07:43:24.250Z,20.2
2017-09-28T07:44:26.702Z,20.2
2017-09-28T07:45:29.481Z,20.3
2017-09-28T07:46:31.912Z,20.3
2017-09-28T07:47:34.362Z,20.3
2017-09-28T07:48:36.804Z,20.4
2017-09-28T07:49:39.271Z,20.4
2017-09-28T07:50:41.663Z,20.4
2017-09-28T07:51:44.054Z,20.5
2017-09-28T07:52:47.084Z,20.6
2017-09-28T07:53:50.020Z,20.6
2017-09-28T07:54:52.401Z,20.6
2017-09-28T07:55:54.774Z,20.7
2017-09-28T07:56:57.167Z,20.8
2017-09-28T07:57:59.558Z,20.7
2017-09-28T07:59:02.293Z,20.8
2017-09-28T08:00:04.705Z,20.8
2017-09-28T08:01:07.127Z,20.8
2017-09-28T08:02:09.514Z,20.8
2017-09-28T08:03:11.918Z,20.8
2017-09-28T08:04:14.295Z,20.8
2017-09-28T08:05:16.685Z,20.9
2017-09-28T08:06:19.069Z,20.9
2017-09-28T08:07:21.801Z,20.9
2017-09-28T08:08:24.206Z,20.9
2017-09-28T08:09:26.938Z,21
2017-09-28T08:10:29.329Z,21
2017-09-28T08:11:31.717Z,21.1
2017-09-28T08:12:34.100Z,21.1
2017-09-28T08:13:36.491Z,21.2
2017-09-28T08:14:38.866Z,21.2
2017-09-28T08:15:41.588Z,21.3
2017-09-28T08:16:43.983Z,21.3
2017-09-28T08:17:46.376Z,21.4
2017-09-28T08:18:48.755Z,21.4
2017-09-28T08:19:51.479Z,21.4
2017-09-28T08:20:53.859Z,21.3
2017-09-28T08:21:56.258Z,21.3
2017-09-28T08:22:58.642Z,21.4
2017-09-28T08:24:01.024Z,21.4
2017-09-28T08:25:03.752Z,21.5
2017-09-28T08:26:06.134Z,21.5
2017-09-28T08:27:08.501Z,21.6
2017-09-28T08:28:10.891Z,21.6
2017-09-28T08:29:13.274Z,21.6
2017-09-28T08:30:15.653Z,21.7
2017-09-28T08:31:18.011Z,21.7
2017-09-28T08:32:20.370Z,21.8
2017-09-28T08:33:22.724Z,21.8
2017-09-28T08:34:25.083Z,21.9
2017-09-28T08:35:27.442Z,21.9
2017-09-28T08:36:29.799Z,21.9
2017-09-28T08:37:32.165Z,21.9
2017-09-28T08:38:34.524Z,21.9
2017-09-28T08:39:36.954Z,21.9
2017-09-28T08:40:39.310Z,21.9
2017-09-28T08:41:41.668Z,21.9
2017-09-28T08:42:44.025Z,21.9
2017-09-28T08:43:46.383Z,21.9
2017-09-28T08:44:48.745Z,21.9
2017-09-28T08:45:51.439Z,22
2017-09-28T08:46:53.798Z,22
2017-09-28T08:47:56.160Z,22
2017-09-28T08:48:58.517Z,22
2017-09-28T08:50:01.213Z,22
2017-09-28T08:51:03.571Z,22
2017-09-28T08:52:05.928Z,22
2017-09-28T08:53:08.284Z,22
2017-09-28T08:54:10.979Z,22.1
2017-09-28T08:55:13.339Z,22
2017-09-28T08:56:15.698Z,22
2017-09-28T08:57:18.057Z,22
2017-09-28T08:58:20.411Z,22
2017-09-28T08:59:22.768Z,21.9
2017-09-28T09:00:25.466Z,21.9
2017-09-28T09:01:27.827Z,21.9
2017-09-28T09:02:30.187Z,21.9
2017-09-28T09:03:32.543Z,21.9
2017-09-28T09:04:34.905Z,21.9
2017-09-28T09:05:37.599Z,21.9
2017-09-28T09:06:39.957Z,21.9
2017-09-28T09:07:42.336Z,22
2017-09-28T09:08:44.702Z,22
2017-09-28T09:09:47.415Z,22.1
2017-09-28T09:10:50.114Z,22.1
2017-09-28T09:11:52.501Z,22.2
2017-09-28T09:12:54.859Z,22.2
2017-09-28T09:13:57.218Z,22.2
2017-09-28T09:15:00.873Z,22.3
2017-09-28T09:16:03.583Z,22.4
2017-09-28T09:17:05.939Z,22.4
2017-09-28T09:18:09.090Z,22.5
2017-09-28T09:19:11.454Z,22.7
2017-09-28T09:20:13.818Z,22.8
2017-09-28T09:21:16.173Z,22.9
2017-09-28T09:22:18.541Z,23
2017-09-28T09:23:20.910Z,23.1
2017-09-28T09:24:23.270Z,23.2
2017-09-28T09:25:25.966Z,23.3
2017-09-28T09:26:28.338Z,23.3
2017-09-28T09:27:30.718Z,23.3
2017-09-28T09:28:33.082Z,23.3
2017-09-28T09:29:35.442Z,23.3
2017-09-28T09:30:37.803Z,23.3
2017-09-28T09:31:40.205Z,23.3
2017-09-28T09:32:42.563Z,23.3
2017-09-28T09:33:44.933Z,23.3
2017-09-28T09:34:47.301Z,23.3
2017-09-28T09:35:49.664Z,23.3
2017-09-28T09:36:52.044Z,23.4
2017-09-28T09:37:54.408Z,23.4
2017-09-28T09:38:56.775Z,23.4
2017-09-28T09:39:59.133Z,23.5
2017-09-28T09:41:01.496Z,23.5
2017-09-28T09:42:03.856Z,23.6
2017-09-28T09:43:06.584Z,23.6
2017-09-28T09:44:09.280Z,23.6
2017-09-28T09:45:11.642Z,23.7
2017-09-28T09:46:14.004Z,23.7
2017-09-28T09:47:16.365Z,23.7
2017-09-28T09:48:18.728Z,23.7
2017-09-28T09:49:21.089Z,23.7
2017-09-28T09:50:23.450Z,23.7
2017-09-28T09:51:25.814Z,23.7
2017-09-28T09:52:28.174Z,23.7
2017-09-28T09:53:30.534Z,23.7
2017-09-28T09:54:32.895Z,23.7
2017-09-28T09:55:35.258Z,23.8
2017-09-28T09:56:37.614Z,23.8
2017-09-28T09:57:39.977Z,23.8
2017-09-28T09:58:42.339Z,23.8
2017-09-28T09:59:44.699Z,23.8
2017-09-28T10:00:47.061Z,23.8
2017-09-28T10:01:49.422Z,23.9
2017-09-28T10:02:51.782Z,23.9
2017-09-28T10:03:54.142Z,24
2017-09-28T10:04:56.504Z,24
2017-09-28T10:05:58.866Z,24
2017-09-28T10:07:01.565Z,24
2017-09-28T10:08:03.923Z,24.1
2017-09-28T10:09:06.624Z,24.1
2017-09-28T10:10:08.985Z,24.2
2017-09-28T10:11:11.345Z,24.2
2017-09-28T10:12:13.706Z,24.2
2017-09-28T10:13:16.067Z,24.3
2017-09-28T10:14:18.429Z,24.3
2017-09-28T10:15:20.817Z,24.4
2017-09-28T10:16:23.149Z,24.4
2017-09-28T10:17:25.509Z,24.4
2017-09-28T10:18:27.870Z,24.4
2017-09-28T10:19:30.233Z,24.5
2017-09-28T10:20:32.593Z,24.5
2017-09-28T10:21:34.955Z,24.5
2017-09-28T10:22:37.316Z,24.6
2017-09-28T10:23:39.673Z,24.7
2017-09-28T10:24:43.898Z,24.8
2017-09-28T10:25:46.261Z,24.9
2017-09-28T10:26:48.622Z,25.1
2017-09-28T10:27:51.055Z,25.2
2017-09-28T10:28:53.415Z,25.4
2017-09-28T10:29:55.777Z,25.5
2017-09-28T10:30:59.320Z,25.7
2017-09-28T10:32:02.499Z,25.9
2017-09-28T10:33:04.852Z,26.1
2017-09-28T10:34:07.215Z,26.2
2017-09-28T10:35:09.579Z,26.4
2017-09-28T10:36:11.946Z,26.5
2017-09-28T10:37:14.345Z,26.6
2017-09-28T10:38:16.811Z,26.6
2017-09-28T10:39:19.173Z,26.6
2017-09-28T10:40:21.877Z,26.5
2017-09-28T10:41:24.596Z,26.5
2017-09-28T10:42:26.958Z,26.4
2017-09-28T10:43:29.323Z,26.3
2017-09-28T10:44:31.686Z,26.1
2017-09-28T10:45:34.391Z,26
2017-09-28T10:46:36.812Z,25.9
2017-09-28T10:47:39.175Z,25.8
2017-09-28T10:48:41.538Z,25.8
2017-09-28T10:49:43.901Z,25.7
2017-09-28T10:50:46.263Z,25.7
2017-09-28T10:51:48.630Z,25.7
2017-09-28T10:52:50.995Z,25.7
2017-09-28T10:53:53.422Z,25.7
2017-09-28T10:54:55.783Z,25.7
2017-09-28T10:55:58.230Z,25.7
2017-09-28T10:57:00.596Z,25.7
2017-09-28T10:58:03.061Z,25.7
2017-09-28T10:59:05.747Z,25.6
2017-09-28T11:00:08.282Z,25.6
2017-09-28T11:01:10.648Z,25.5
2017-09-28T11:02:13.378Z,25.4
2017-09-28T11:03:15.739Z,25.4
2017-09-28T11:04:18.165Z,25.3
2017-09-28T11:05:20.541Z,25.3
2017-09-28T11:06:22.908Z,25.2
2017-09-28T11:07:25.738Z,25.1
2017-09-28T11:08:28.243Z,25.1
2017-09-28T11:09:30.589Z,25.1
2017-09-28T11:10:32.981Z,25.1
2017-09-28T11:11:35.407Z,25
2017-09-28T11:12:37.768Z,25
2017-09-28T11:13:40.257Z,25.1
2017-09-28T11:14:42.621Z,25.2
2017-09-28T11:15:45.044Z,25.3
2017-09-28T11:16:47.403Z,25.4
2017-09-28T11:17:49.831Z,25.6
2017-09-28T11:18:52.192Z,25.8
2017-09-28T11:19:54.654Z,25.9
2017-09-28T11:20:57.018Z,26.1
2017-09-28T11:21:59.421Z,26.2
2017-09-28T11:23:01.785Z,26.3
2017-09-28T11:24:04.150Z,26.3
2017-09-28T11:25:06.512Z,26.4
2017-09-28T11:26:08.873Z,26.5
2017-09-28T11:27:11.236Z,26.5
2017-09-28T11:28:13.722Z,26.6
2017-09-28T11:29:16.087Z,26.7
2017-09-28T11:30:18.605Z,26.8
2017-09-28T11:31:20.970Z,26.8
2017-09-28T11:32:23.428Z,26.9
2017-09-28T11:33:25.795Z,27
2017-09-28T11:34:28.253Z,27.1
2017-09-28T11:35:30.601Z,27.2
2017-09-28T11:36:32.998Z,27.2
2017-09-28T11:37:35.414Z,27.2
2017-09-28T11:38:37.779Z,27.3
2017-09-28T11:39:40.146Z,27.3
2017-09-28T11:40:42.512Z,27.3
2017-09-28T11:41:44.876Z,27.4
2017-09-28T11:42:47.244Z,27.5
2017-09-28T11:43:49.664Z,27.7
2017-09-28T11:44:52.046Z,27.8
2017-09-28T11:45:54.424Z,27.9
2017-09-28T11:46:56.788Z,28.1
2017-09-28T11:47:59.154Z,28.2
2017-09-28T11:49:01.521Z,28.3
2017-09-28T11:50:03.897Z,28.4
2017-09-28T11:51:06.265Z,28.5
2017-09-28T11:52:08.632Z,28.6
2017-09-28T11:53:11.011Z,28.7
2017-09-28T11:54:13.380Z,28.8
2017-09-28T11:55:15.745Z,28.8
2017-09-28T11:56:18.126Z,28.8
2017-09-28T11:57:20.510Z,28.9
2017-09-28T11:58:22.877Z,29
2017-09-28T11:59:25.247Z,29.1
2017-09-28T12:00:27.982Z,29.2
2017-09-28T12:01:30.349Z,29.2
2017-09-28T12:02:32.730Z,29.3
2017-09-28T12:03:35.107Z,29.4
2017-09-28T12:04:37.493Z,29.5
2017-09-28T12:05:39.870Z,29.5
2017-09-28T12:06:42.238Z,29.6
2017-09-28T12:07:44.613Z,29.7
2017-09-28T12:08:46.981Z,29.7
2017-09-28T12:09:49.350Z,29.7
2017-09-28T12:10:51.714Z,29.7
2017-09-28T12:11:54.192Z,29.6
2017-09-28T12:12:56.587Z,29.6
2017-09-28T12:13:58.955Z,29.5
2017-09-28T12:15:01.327Z,29.5
2017-09-28T12:16:03.710Z,29.4
2017-09-28T12:17:06.079Z,29.4
2017-09-28T12:18:08.452Z,29.3
2017-09-28T12:19:10.838Z,29.3
2017-09-28T12:20:13.223Z,29.4
2017-09-28T12:21:15.624Z,29.4
2017-09-28T12:22:17.982Z,29.4
2017-09-28T12:23:20.352Z,29.4
2017-09-28T12:24:23.098Z,29.4
2017-09-28T12:25:25.823Z,29.4
2017-09-28T12:26:28.548Z,29.5
2017-09-28T12:27:30.914Z,29.6
2017-09-28T12:28:33.677Z,29.6
2017-09-28T12:29:36.060Z,29.6
2017-09-28T12:30:38.433Z,29.6
2017-09-28T12:31:40.798Z,29.6
2017-09-28T12:32:43.167Z,29.5
2017-09-28T12:33:45.538Z,29.4
2017-09-28T12:34:47.916Z,29.3
2017-09-28T12:35:50.301Z,29.2
2017-09-28T12:36:52.675Z,29.1
2017-09-28T12:37:55.076Z,29
2017-09-28T12:38:57.483Z,28.9
2017-09-28T12:40:00.254Z,28.7
2017-09-28T12:41:02.622Z,28.6
2017-09-28T12:42:05.011Z,28.5
2017-09-28T12:43:07.378Z,28.4
2017-09-28T12:44:09.742Z,28.3
2017-09-28T12:45:12.106Z,28.2
2017-09-28T12:46:14.472Z,28.2
2017-09-28T12:47:16.838Z,28.1
2017-09-28T12:48:19.214Z,28.1
2017-09-28T12:49:21.585Z,28.1
2017-09-28T12:50:23.959Z,28.1
2017-09-28T12:51:26.323Z,28
2017-09-28T12:52:28.793Z,28
2017-09-28T12:53:31.163Z,28
2017-09-28T12:54:33.567Z,28
2017-09-28T12:55:35.933Z,27.9
2017-09-28T12:56:38.347Z,27.8
2017-09-28T12:57:40.788Z,27.8
2017-09-28T12:58:43.165Z,27.7
2017-09-28T12:59:45.540Z,27.6
2017-09-28T13:00:47.905Z,27.5
2017-09-28T13:01:50.270Z,27.4
2017-09-28T13:02:52.638Z,27.4
2017-09-28T13:03:55.034Z,27.3
2017-09-28T13:04:57.788Z,27.3
2017-09-28T13:06:00.155Z,27.2
2017-09-28T13:07:02.623Z,27.2
2017-09-28T13:08:04.988Z,27.1
2017-09-28T13:09:26.562Z,27.1
2017-09-28T13:10:28.934Z,27.1
2017-09-28T13:11:31.294Z,27
2017-09-28T13:12:33.668Z,27
2017-09-28T13:13:36.059Z,27
2017-09-28T13:14:38.761Z,27
2017-09-28T13:15:41.130Z,26.9
2017-09-28T13:16:43.495Z,26.8
2017-09-28T13:17:45.862Z,26.8
2017-09-28T13:18:48.570Z,26.7
2017-09-28T13:19:50.932Z,26.6
2017-09-28T13:20:53.298Z,26.5
2017-09-28T13:21:55.665Z,26.5
2017-09-28T13:22:58.060Z,26.5
2017-09-28T13:24:00.436Z,26.5
2017-09-28T13:25:02.814Z,26.4
2017-09-28T13:26:05.188Z,26.3
2017-09-28T13:27:07.567Z,26.3
2017-09-28T13:28:10.294Z,26.3
2017-09-28T13:29:12.664Z,26.2
2017-09-28T13:30:15.050Z,26.1
2017-09-28T13:31:17.427Z,26.1
2017-09-28T13:32:19.828Z,26.1
2017-09-28T13:33:22.202Z,26
2017-09-28T13:34:24.576Z,26
2017-09-28T13:35:26.943Z,25.9
2017-09-28T13:36:29.321Z,25.9
2017-09-28T13:37:32.049Z,25.8
2017-09-28T13:38:34.773Z,25.8
2017-09-28T13:39:37.141Z,25.7
2017-09-28T13:40:39.858Z,25.7
2017-09-28T13:41:42.562Z,25.6
2017-09-28T13:42:44.926Z,25.5
2017-09-28T13:43:47.290Z,25.5
2017-09-28T13:44:49.658Z,25.4
2017-09-28T13:45:52.389Z,25.3
2017-09-28T13:46:54.777Z,25.3
2017-09-28T13:47:57.143Z,25.2
2017-09-28T13:48:59.842Z,25.2
2017-09-28T13:50:02.234Z,25.2
2017-09-28T13:51:04.609Z,25.2
2017-09-28T13:52:06.975Z,25.1
2017-09-28T13:53:09.338Z,25
2017-09-28T13:54:11.707Z,25
2017-09-28T13:55:14.077Z,25
2017-09-28T13:56:16.446Z,24.9
2017-09-28T13:57:18.811Z,24.8
2017-09-28T13:58:21.177Z,24.8